Pittsburg, Kansas
Current Conditions -  °F | °C
As of 8:35 AM on Tuesday 21 Oct 2014 (Local Time) from KPTS Reporting Station
Overcast Overcast  
Wind Chill: 50°   Ceiling: 100
Heat Index: 50°   Visibility: 7mi
Dew Point: 50°   Wind: 0mph
Humidity: 100%   Direction: NA
Pressure: 30.12"   Gusts: NA
Location:  37.41°N, 94.7°W
Report Text: KPTS 211335Z AUTO 00000KT 7SM OVC001 10/10 A3012 RMK AO2 T00990100
Loading
Personal Weather Stations






























Interactive Weather Map
Tropical Storm Tracking
New forecast layout! Learn more

10-Day Weather Forecast

Advertisements
Track Severe Weather on mobile